createdAt,value
2019-02-17T09:04:11.093Z,39.75
2019-02-17T09:06:39.361Z,41.50
2019-02-17T09:09:07.919Z,42.05
2019-02-17T09:11:36.423Z,42.62
2019-02-17T09:14:04.743Z,43.65
2019-02-17T09:16:33.389Z,43.87
2019-02-17T09:19:02.199Z,42.27
2019-02-17T09:21:30.939Z,43.33
2019-02-17T09:23:59.267Z,42.35
2019-02-17T09:26:29.650Z,44.23
2019-02-17T09:28:57.997Z,43.63
2019-02-17T09:31:26.191Z,42.20
2019-02-17T09:33:54.402Z,41.28
2019-02-17T09:36:22.605Z,42.88
2019-02-17T09:38:50.810Z,41.53
2019-02-17T09:41:19.364Z,43.23
2019-02-17T09:43:47.570Z,40.58
2019-02-17T09:46:16.119Z,40.52
2019-02-17T09:48:44.703Z,38.58
2019-02-17T09:51:12.978Z,36.20
2019-02-17T09:53:41.563Z,37.50
2019-02-17T09:56:09.762Z,37.10
2019-02-17T09:58:38.521Z,35.45
2019-02-17T10:01:06.716Z,33.35
2019-02-17T10:03:34.937Z,32.93
2019-02-17T10:06:03.133Z,34.23
2019-02-17T10:08:31.421Z,33.42
2019-02-17T10:10:59.639Z,33.95
2019-02-17T10:13:27.922Z,32.35
2019-02-17T10:15:56.143Z,34.00
2019-02-17T10:18:24.353Z,32.70
2019-02-17T10:20:52.575Z,32.88
2019-02-17T10:23:20.771Z,32.42
2019-02-17T10:25:49.259Z,32.08
2019-02-17T10:28:17.480Z,32.78
2019-02-17T10:30:45.683Z,32.70
2019-02-17T10:33:13.908Z,32.67
2019-02-17T10:35:42.100Z,34.18
2019-02-17T10:38:10.316Z,33.13
2019-02-17T10:40:38.511Z,33.90
2019-02-17T10:43:06.723Z,33.60
2019-02-17T10:45:35.266Z,32.53
2019-02-17T10:48:03.477Z,34.55
2019-02-17T10:50:31.676Z,33.95
2019-02-17T10:52:59.879Z,34.03
2019-02-17T10:55:28.078Z,32.33
2019-02-17T10:57:56.295Z,32.90
2019-02-17T11:00:24.563Z,33.50
2019-02-17T11:02:52.770Z,32.67
2019-02-17T11:05:20.964Z,33.65
2019-02-17T11:07:49.452Z,32.93
2019-02-17T11:10:17.652Z,33.48
2019-02-17T11:12:45.870Z,31.25
2019-02-17T11:15:21.449Z,31.27
2019-02-17T11:17:49.657Z,32.35
2019-02-17T11:20:17.880Z,31.05
2019-02-17T11:22:46.153Z,31.50
2019-02-17T11:25:15.252Z,29.98
2019-02-17T11:27:43.462Z,31.00
2019-02-17T11:30:14.772Z,31.75
2019-02-17T11:32:43.342Z,31.12
2019-02-17T11:35:11.540Z,31.45
2019-02-17T11:37:39.738Z,30.17
2019-02-17T11:40:10.666Z,30.50
2019-02-17T11:42:38.871Z,29.98
2019-02-17T11:45:10.359Z,29.25
2019-02-17T11:47:38.867Z,30.17
2019-02-17T11:50:08.515Z,29.67
2019-02-17T11:52:36.714Z,28.40
2019-02-17T11:55:08.231Z,29.80
2019-02-17T11:57:36.797Z,29.20
2019-02-17T12:00:08.340Z,28.23
2019-02-17T12:02:36.542Z,29.15
2019-02-17T12:05:06.437Z,27.02
2019-02-17T12:07:34.920Z,28.52
2019-02-17T12:10:03.404Z,27.05
2019-02-17T12:12:31.609Z,27.60
2019-02-17T12:14:59.808Z,27.37
2019-02-17T12:17:28.015Z,29.35
2019-02-17T12:19:57.855Z,28.57
2019-02-17T12:22:27.726Z,27.27
2019-02-17T12:24:57.567Z,27.40
2019-02-17T12:27:27.407Z,27.73
2019-02-17T12:29:57.206Z,28.50
2019-02-17T12:32:27.045Z,27.82
2019-02-17T12:34:55.244Z,27.75
2019-02-17T12:37:23.758Z,28.05
2019-02-17T12:39:51.962Z,26.57
2019-02-17T12:42:20.508Z,27.37
2019-02-17T12:44:48.994Z,25.68
2019-02-17T12:47:17.304Z,27.55
2019-02-17T12:49:45.861Z,27.75
2019-02-17T12:52:14.074Z,26.55
2019-02-17T12:54:42.291Z,26.90
2019-02-17T12:57:10.784Z,27.17
2019-02-17T12:59:38.996Z,25.08
2019-02-17T13:02:07.199Z,26.40
2019-02-17T13:04:35.419Z,26.20
2019-02-17T13:07:03.684Z,25.85
2019-02-17T13:09:31.908Z,25.85
2019-02-17T13:12:00.443Z,27.93
2019-02-17T13:14:28.658Z,24.43
2019-02-17T13:16:57.208Z,24.87
2019-02-17T13:19:25.408Z,24.60
2019-02-17T13:21:53.609Z,25.72
2019-02-17T13:24:22.690Z,24.80
2019-02-17T13:26:50.901Z,25.70
2019-02-17T13:29:19.119Z,25.17
2019-02-17T13:31:47.343Z,24.30
2019-02-17T13:34:15.535Z,24.57
2019-02-17T13:36:44.034Z,23.98
2019-02-17T13:39:12.256Z,23.70
2019-02-17T13:41:40.459Z,24.35
2019-02-17T13:44:08.966Z,24.15
2019-02-17T13:46:37.181Z,26.55
2019-02-17T13:49:05.406Z,25.77
2019-02-17T13:51:33.621Z,26.10
2019-02-17T13:54:01.839Z,27.80
2019-02-17T13:56:30.040Z,25.20
2019-02-17T13:58:58.523Z,26.05
2019-02-17T14:01:26.722Z,25.05
2019-02-17T14:03:54.954Z,24.55
2019-02-17T14:06:23.177Z,25.45
2019-02-17T14:08:51.731Z,24.98
2019-02-17T14:11:19.944Z,25.55
2019-02-17T14:13:48.499Z,27.15
2019-02-17T14:16:17.078Z,26.42
2019-02-17T14:18:45.548Z,27.60
2019-02-17T14:21:13.761Z,25.48
2019-02-17T14:23:42.303Z,26.35
2019-02-17T14:26:10.506Z,23.50
2019-02-17T14:28:38.705Z,23.87
2019-02-17T14:31:06.938Z,23.38
2019-02-17T14:33:35.135Z,23.38
2019-02-17T14:36:03.684Z,23.12
2019-02-17T14:38:31.912Z,23.07
2019-02-17T14:41:00.452Z,24.10
2019-02-17T14:43:28.655Z,23.92
2019-02-17T14:45:56.873Z,23.75
2019-02-17T14:48:25.099Z,22.98
2019-02-17T14:50:53.295Z,22.80
2019-02-17T14:53:21.535Z,22.25
2019-02-17T14:55:49.713Z,23.80
2019-02-17T14:58:17.914Z,24.85
2019-02-17T15:00:46.448Z,22.67
2019-02-17T15:03:14.649Z,22.45
2019-02-17T15:05:43.210Z,22.52
2019-02-17T15:08:11.421Z,22.65
2019-02-17T15:10:39.632Z,21.15
2019-02-17T15:13:07.852Z,21.90
2019-02-17T15:15:36.416Z,21.97
2019-02-17T15:18:04.897Z,21.30
2019-02-17T15:20:33.095Z,21.80
2019-02-17T15:23:01.306Z,23.62
2019-02-17T15:25:29.505Z,22.02
2019-02-17T15:27:57.715Z,22.67
2019-02-17T15:30:26.183Z,22.10
2019-02-17T15:33:03.727Z,22.15
2019-02-17T15:35:24.703Z,22.45
2019-02-17T15:37:53.266Z,21.75
2019-02-17T15:40:23.482Z,20.95
2019-02-17T15:42:51.851Z,23.12
2019-02-17T15:45:20.340Z,21.55
2019-02-17T15:47:48.829Z,21.12
2019-02-17T15:50:17.303Z,22.00
2019-02-17T15:52:45.522Z,20.12
2019-02-17T15:55:15.315Z,20.52
2019-02-17T15:57:43.534Z,20.72
2019-02-17T16:00:13.772Z,20.40
2019-02-17T16:02:41.979Z,21.65
2019-02-17T16:05:10.366Z,20.82
2019-02-17T16:07:38.566Z,20.55
2019-02-17T16:10:10.042Z,21.17
2019-02-17T16:12:38.238Z,21.27
2019-02-17T16:15:09.694Z,20.17
2019-02-17T16:17:37.912Z,20.30
2019-02-17T16:20:09.521Z,20.55
2019-02-17T16:22:38.015Z,19.48
2019-02-17T16:25:08.002Z,19.87
2019-02-17T16:27:36.209Z,20.15
2019-02-17T16:30:07.011Z,19.62
2019-02-17T16:32:35.225Z,20.23
2019-02-17T16:35:03.442Z,20.05
2019-02-17T16:37:31.645Z,20.20
2019-02-17T16:39:59.852Z,21.27
2019-02-17T16:42:28.326Z,20.90
2019-02-17T16:44:56.538Z,21.05
2019-02-17T16:47:24.739Z,20.15
2019-02-17T16:49:52.953Z,20.10
2019-02-17T16:52:21.158Z,21.45
2019-02-17T16:54:49.383Z,20.48
2019-02-17T16:57:17.587Z,19.48
2019-02-17T16:59:45.796Z,20.15
2019-02-17T17:02:13.999Z,20.65
2019-02-17T17:04:48.477Z,20.17
2019-02-17T17:07:12.150Z,20.92
2019-02-17T17:09:40.392Z,20.32
2019-02-17T17:12:08.725Z,20.35
2019-02-17T17:14:37.116Z,21.68
2019-02-17T17:17:05.369Z,21.55
2019-02-17T17:19:33.857Z,22.27
2019-02-17T17:22:02.682Z,22.35
2019-02-17T17:24:31.276Z,23.30
2019-02-17T17:26:59.482Z,22.87
2019-02-17T17:29:27.715Z,21.00
2019-02-17T17:31:55.923Z,21.40
2019-02-17T17:34:24.125Z,22.85
2019-02-17T17:36:52.652Z,21.20
2019-02-17T17:39:21.162Z,19.65
2019-02-17T17:41:49.395Z,21.57
2019-02-17T17:44:17.607Z,21.62
2019-02-17T17:46:45.804Z,22.85
2019-02-17T17:49:19.344Z,21.65
2019-02-17T17:51:44.364Z,21.23
2019-02-17T17:54:12.942Z,22.05
2019-02-17T17:56:41.148Z,21.02
2019-02-17T17:59:09.365Z,21.60
2019-02-17T18:01:37.814Z,21.02
2019-02-17T18:04:06.021Z,22.60
2019-02-17T18:06:34.253Z,21.87
2019-02-17T18:09:02.453Z,22.60
2019-02-17T18:11:30.980Z,21.52
2019-02-17T18:13:59.213Z,22.32
2019-02-17T18:16:27.423Z,22.93
2019-02-17T18:18:55.626Z,22.30
2019-02-17T18:21:23.829Z,23.02
2019-02-17T18:23:52.031Z,22.77
2019-02-17T18:26:20.242Z,24.00
2019-02-17T18:28:48.710Z,23.15
2019-02-17T18:31:16.923Z,24.15
2019-02-17T18:33:45.469Z,24.92
2019-02-17T18:36:13.949Z,25.60
2019-02-17T18:38:42.154Z,25.08
2019-02-17T18:41:10.352Z,24.85
2019-02-17T18:43:38.559Z,25.32
2019-02-17T18:46:06.763Z,25.27
2019-02-17T18:48:34.965Z,25.85
2019-02-17T18:51:03.503Z,23.95
2019-02-17T18:53:31.983Z,25.95
2019-02-17T18:56:00.199Z,25.50
2019-02-17T18:58:28.746Z,25.05
2019-02-17T19:00:57.332Z,26.62
2019-02-17T19:03:25.526Z,25.95
2019-02-17T19:05:54.089Z,26.77
2019-02-17T19:08:22.282Z,27.22
2019-02-17T19:10:50.472Z,26.73
2019-02-17T19:13:18.678Z,25.65
2019-02-17T19:15:47.188Z,26.05
2019-02-17T19:18:15.670Z,26.30
2019-02-17T19:20:44.156Z,27.02
2019-02-17T19:23:12.355Z,25.23
2019-02-17T19:25:40.573Z,27.00
2019-02-17T19:28:08.777Z,26.52
2019-02-17T19:30:37.266Z,26.15
2019-02-17T19:33:05.462Z,27.62
2019-02-17T19:35:41.505Z,27.50
2019-02-17T19:38:03.596Z,26.60
2019-02-17T19:40:31.794Z,28.10
2019-02-17T19:43:00.049Z,27.87
2019-02-17T19:45:28.211Z,27.42
2019-02-17T19:47:56.731Z,29.85
2019-02-17T19:50:24.944Z,29.25
2019-02-17T19:52:53.149Z,29.87
2019-02-17T19:55:21.365Z,29.27
2019-02-17T19:57:49.835Z,28.80
2019-02-17T20:00:19.975Z,29.25
2019-02-17T20:02:52.772Z,29.60
2019-02-17T20:05:22.606Z,27.80
2019-02-17T20:07:52.807Z,28.95
2019-02-17T20:10:20.756Z,28.57
2019-02-17T20:12:50.531Z,28.87
2019-02-17T20:15:19.111Z,29.37
2019-02-17T20:17:47.318Z,29.85
2019-02-17T20:20:15.933Z,28.15
2019-02-17T20:22:44.121Z,27.48
2019-02-17T20:25:12.310Z,27.65
2019-02-17T20:27:40.835Z,27.07
2019-02-17T20:30:11.902Z,28.25
2019-02-17T20:32:40.116Z,27.82
2019-02-17T20:35:09.263Z,28.15
2019-02-17T20:37:37.468Z,28.55
2019-02-17T20:40:16.596Z,28.02
2019-02-17T20:42:44.785Z,26.68
2019-02-17T20:45:13.000Z,28.92
2019-02-17T20:47:41.233Z,26.77
2019-02-17T20:50:12.634Z,27.37
2019-02-17T20:52:40.874Z,28.52
2019-02-17T20:55:10.721Z,29.55
2019-02-17T20:57:38.935Z,28.32
2019-02-17T21:00:12.790Z,27.00
2019-02-17T21:02:40.993Z,28.17
2019-02-17T21:05:10.049Z,26.90
2019-02-17T21:07:38.250Z,28.02
2019-02-17T21:10:11.932Z,27.50
2019-02-17T21:12:40.133Z,28.05
2019-02-17T21:15:14.000Z,26.75
2019-02-17T21:17:42.203Z,26.95
2019-02-17T21:20:10.646Z,27.50
2019-02-17T21:22:38.862Z,27.40
2019-02-17T21:25:11.644Z,27.52
2019-02-17T21:27:39.856Z,26.73
2019-02-17T21:30:13.523Z,26.57
2019-02-17T21:32:41.734Z,26.50
2019-02-17T21:35:12.553Z,26.10
2019-02-17T21:37:40.761Z,26.55
2019-02-17T21:40:10.804Z,27.02
2019-02-17T21:42:39.370Z,26.75
2019-02-17T21:45:12.306Z,27.32
2019-02-17T21:47:40.526Z,26.70
2019-02-17T21:50:10.667Z,27.13
2019-02-17T21:52:38.874Z,27.87
2019-02-17T21:55:08.904Z,27.70
2019-02-17T21:57:37.113Z,27.77
2019-02-17T22:00:15.150Z,28.07
2019-02-17T22:02:43.377Z,26.90
2019-02-17T22:05:11.824Z,28.27
2019-02-17T22:07:40.367Z,28.23
2019-02-17T22:10:11.656Z,29.00
2019-02-17T22:12:39.863Z,27.85
2019-02-17T22:15:11.172Z,28.70
2019-02-17T22:17:39.374Z,28.35
2019-02-17T22:20:09.416Z,27.55
2019-02-17T22:22:37.916Z,28.35
2019-02-17T22:25:07.643Z,28.17
2019-02-17T22:27:35.849Z,28.67
2019-02-17T22:30:06.429Z,28.17
2019-02-17T22:32:34.652Z,27.80
2019-02-17T22:35:03.208Z,28.87
2019-02-17T22:37:31.401Z,28.15
2019-02-17T22:39:59.594Z,29.23
2019-02-17T22:42:28.111Z,27.65
2019-02-17T22:44:56.320Z,29.00
2019-02-17T22:47:24.528Z,27.80
2019-02-17T22:49:52.718Z,27.32
2019-02-17T22:52:20.929Z,27.07
2019-02-17T22:54:49.126Z,27.13
2019-02-17T22:57:17.671Z,29.05
2019-02-17T22:59:45.883Z,27.30
2019-02-17T23:02:14.428Z,26.52
2019-02-17T23:04:42.639Z,27.22
2019-02-17T23:07:11.187Z,27.02
2019-02-17T23:09:39.407Z,27.87
2019-02-17T23:12:07.604Z,26.90
2019-02-17T23:14:36.214Z,27.37
2019-02-17T23:17:04.426Z,26.55
2019-02-17T23:19:32.629Z,27.13
2019-02-17T23:22:00.869Z,28.17
2019-02-17T23:24:29.064Z,26.27
2019-02-17T23:26:57.258Z,27.00
2019-02-17T23:29:25.489Z,28.27
2019-02-17T23:31:53.681Z,27.98
2019-02-17T23:34:21.886Z,27.30
2019-02-17T23:36:50.079Z,26.12
2019-02-17T23:39:18.291Z,25.50
2019-02-17T23:41:47.264Z,26.80
2019-02-17T23:44:15.470Z,25.35
2019-02-17T23:46:44.021Z,25.90
2019-02-17T23:49:12.236Z,26.75
2019-02-17T23:51:40.431Z,26.48
2019-02-17T23:54:08.637Z,27.00
2019-02-17T23:56:36.837Z,26.73
2019-02-17T23:59:05.043Z,25.90
